sensor_id;sensor_type;location;lat;lon;timestamp;P1;durP1;ratioP1;P2;durP2;ratioP2
67049;SDS011;53955;52.442;13.284;2022-07-06T00:01:42;2.60;;;0.90;;
67049;SDS011;53955;52.442;13.284;2022-07-06T00:06:37;1.45;;;0.80;;
67049;SDS011;53955;52.442;13.284;2022-07-06T00:09:04;1.80;;;0.80;;
67049;SDS011;53955;52.442;13.284;2022-07-06T00:11:31;1.33;;;0.73;;
67049;SDS011;53955;52.442;13.284;2022-07-06T00:13:58;2.15;;;1.00;;
67049;SDS011;53955;52.442;13.284;2022-07-06T00:16:25;2.53;;;1.15;;
67049;SDS011;53955;52.442;13.284;2022-07-06T00:18:52;1.65;;;0.77;;
67049;SDS011;53955;52.442;13.284;2022-07-06T00:21:18;1.25;;;0.90;;
67049;SDS011;53955;52.442;13.284;2022-07-06T00:23:46;2.88;;;0.93;;
67049;SDS011;53955;52.442;13.284;2022-07-06T00:26:13;2.17;;;0.82;;
67049;SDS011;53955;52.442;13.284;2022-07-06T00:28:39;1.20;;;0.70;;
67049;SDS011;53955;52.442;13.284;2022-07-06T00:31:06;2.90;;;0.90;;
67049;SDS011;53955;52.442;13.284;2022-07-06T00:33:32;2.67;;;1.20;;
67049;SDS011;53955;52.442;13.284;2022-07-06T00:35:59;1.27;;;0.80;;
67049;SDS011;53955;52.442;13.284;2022-07-06T00:38:25;2.15;;;0.93;;
67049;SDS011;53955;52.442;13.284;2022-07-06T00:40:53;2.60;;;1.05;;
67049;SDS011;53955;52.442;13.284;2022-07-06T00:43:20;1.25;;;0.93;;
67049;SDS011;53955;52.442;13.284;2022-07-06T00:45:46;2.15;;;0.90;;
67049;SDS011;53955;52.442;13.284;2022-07-06T00:48:13;2.83;;;1.00;;
67049;SDS011;53955;52.442;13.284;2022-07-06T00:50:40;2.28;;;1.00;;
67049;SDS011;53955;52.442;13.284;2022-07-06T00:53:06;1.95;;;0.75;;
67049;SDS011;53955;52.442;13.284;2022-07-06T00:55:34;5.85;;;1.02;;
67049;SDS011;53955;52.442;13.284;2022-07-06T00:58:06;4.35;;;0.93;;
67049;SDS011;53955;52.442;13.284;2022-07-06T01:00:33;1.58;;;0.82;;
67049;SDS011;53955;52.442;13.284;2022-07-06T01:03:01;2.13;;;1.00;;
67049;SDS011;53955;52.442;13.284;2022-07-06T01:05:28;1.15;;;0.85;;
67049;SDS011;53955;52.442;13.284;2022-07-06T01:07:55;2.75;;;0.88;;
67049;SDS011;53955;52.442;13.284;2022-07-06T01:10:21;1.73;;;0.93;;
67049;SDS011;53955;52.442;13.284;2022-07-06T01:12:49;1.33;;;0.80;;
67049;SDS011;53955;52.442;13.284;2022-07-06T01:15:17;2.35;;;0.80;;
67049;SDS011;53955;52.442;13.284;2022-07-06T01:17:45;3.10;;;1.08;;
67049;SDS011;53955;52.442;13.284;2022-07-06T01:20:13;1.27;;;0.80;;
67049;SDS011;53955;52.442;13.284;2022-07-06T01:22:40;1.17;;;0.60;;
67049;SDS011;53955;52.442;13.284;2022-07-06T01:25:08;2.13;;;0.60;;
67049;SDS011;53955;52.442;13.284;2022-07-06T01:27:35;1.63;;;1.00;;
67049;SDS011;53955;52.442;13.284;2022-07-06T01:30:04;2.45;;;0.95;;
67049;SDS011;53955;52.442;13.284;2022-07-06T01:32:32;1.70;;;1.05;;
67049;SDS011;53955;52.442;13.284;2022-07-06T01:34:59;1.70;;;1.00;;
67049;SDS011;53955;52.442;13.284;2022-07-06T01:37:27;1.58;;;0.90;;
67049;SDS011;53955;52.442;13.284;2022-07-06T01:39:57;1.50;;;1.02;;
67049;SDS011;53955;52.442;13.284;2022-07-06T01:42:24;2.15;;;0.98;;
67049;SDS011;53955;52.442;13.284;2022-07-06T01:44:50;1.98;;;0.90;;
67049;SDS011;53955;52.442;13.284;2022-07-06T01:47:17;3.20;;;1.20;;
67049;SDS011;53955;52.442;13.284;2022-07-06T01:49:44;3.60;;;1.30;;
67049;SDS011;53955;52.442;13.284;2022-07-06T01:52:10;4.18;;;1.13;;
67049;SDS011;53955;52.442;13.284;2022-07-06T01:54:38;2.35;;;0.90;;
67049;SDS011;53955;52.442;13.284;2022-07-06T01:57:05;2.22;;;1.05;;
67049;SDS011;53955;52.442;13.284;2022-07-06T01:59:31;1.35;;;0.98;;
67049;SDS011;53955;52.442;13.284;2022-07-06T02:01:58;2.22;;;1.00;;
67049;SDS011;53955;52.442;13.284;2022-07-06T02:04:24;1.48;;;1.08;;
67049;SDS011;53955;52.442;13.284;2022-07-06T02:06:51;3.20;;;1.25;;
67049;SDS011;53955;52.442;13.284;2022-07-06T02:09:18;4.75;;;1.20;;
67049;SDS011;53955;52.442;13.284;2022-07-06T02:11:46;4.28;;;1.35;;
67049;SDS011;53955;52.442;13.284;2022-07-06T02:14:12;2.70;;;1.20;;
67049;SDS011;53955;52.442;13.284;2022-07-06T02:16:39;2.45;;;1.00;;
67049;SDS011;53955;52.442;13.284;2022-07-06T02:19:05;1.98;;;1.17;;
67049;SDS011;53955;52.442;13.284;2022-07-06T02:21:32;1.97;;;1.10;;
67049;SDS011;53955;52.442;13.284;2022-07-06T02:23:59;2.40;;;1.27;;
67049;SDS011;53955;52.442;13.284;2022-07-06T02:26:25;4.55;;;1.30;;
67049;SDS011;53955;52.442;13.284;2022-07-06T02:28:53;1.63;;;1.00;;
67049;SDS011;53955;52.442;13.284;2022-07-06T02:31:20;1.80;;;1.05;;
67049;SDS011;53955;52.442;13.284;2022-07-06T02:33:47;3.65;;;1.08;;
67049;SDS011;53955;52.442;13.284;2022-07-06T02:36:13;1.52;;;1.13;;
67049;SDS011;53955;52.442;13.284;2022-07-06T02:38:40;1.67;;;1.10;;
67049;SDS011;53955;52.442;13.284;2022-07-06T02:41:06;2.30;;;1.08;;
67049;SDS011;53955;52.442;13.284;2022-07-06T02:43:33;2.08;;;1.10;;
67049;SDS011;53955;52.442;13.284;2022-07-06T02:46:01;1.50;;;1.00;;
67049;SDS011;53955;52.442;13.284;2022-07-06T02:48:27;2.55;;;1.10;;
67049;SDS011;53955;52.442;13.284;2022-07-06T02:50:54;2.35;;;1.00;;
67049;SDS011;53955;52.442;13.284;2022-07-06T02:53:21;1.40;;;0.80;;
67049;SDS011;53955;52.442;13.284;2022-07-06T02:55:47;1.13;;;0.95;;
67049;SDS011;53955;52.442;13.284;2022-07-06T02:58:14;1.15;;;0.88;;
67049;SDS011;53955;52.442;13.284;2022-07-06T03:00:40;2.95;;;1.02;;
67049;SDS011;53955;52.442;13.284;2022-07-06T03:03:08;2.13;;;1.05;;
67049;SDS011;53955;52.442;13.284;2022-07-06T03:05:35;2.78;;;1.13;;
67049;SDS011;53955;52.442;13.284;2022-07-06T03:08:01;4.07;;;1.20;;
67049;SDS011;53955;52.442;13.284;2022-07-06T03:10:28;2.58;;;1.10;;
67049;SDS011;53955;52.442;13.284;2022-07-06T03:12:55;3.53;;;1.80;;
67049;SDS011;53955;52.442;13.284;2022-07-06T03:15:21;3.35;;;1.50;;
67049;SDS011;53955;52.442;13.284;2022-07-06T03:17:48;2.33;;;1.02;;
67049;SDS011;53955;52.442;13.284;2022-07-06T03:20:16;3.28;;;1.23;;
67049;SDS011;53955;52.442;13.284;2022-07-06T03:22:42;3.70;;;1.25;;
67049;SDS011;53955;52.442;13.284;2022-07-06T03:25:09;2.45;;;1.10;;
67049;SDS011;53955;52.442;13.284;2022-07-06T03:27:36;4.35;;;1.20;;
67049;SDS011;53955;52.442;13.284;2022-07-06T03:30:03;1.67;;;1.10;;
67049;SDS011;53955;52.442;13.284;2022-07-06T03:32:30;4.20;;;1.40;;
67049;SDS011;53955;52.442;13.284;2022-07-06T03:34:57;2.25;;;1.30;;
67049;SDS011;53955;52.442;13.284;2022-07-06T03:37:25;3.63;;;1.20;;
67049;SDS011;53955;52.442;13.284;2022-07-06T03:39:51;1.83;;;1.10;;
67049;SDS011;53955;52.442;13.284;2022-07-06T03:42:18;2.75;;;1.00;;
67049;SDS011;53955;52.442;13.284;2022-07-06T03:44:44;2.10;;;1.30;;
67049;SDS011;53955;52.442;13.284;2022-07-06T03:47:11;2.42;;;1.10;;
67049;SDS011;53955;52.442;13.284;2022-07-06T03:49:37;4.57;;;1.52;;
67049;SDS011;53955;52.442;13.284;2022-07-06T03:52:04;3.75;;;1.27;;
67049;SDS011;53955;52.442;13.284;2022-07-06T03:54:32;2.83;;;1.25;;
67049;SDS011;53955;52.442;13.284;2022-07-06T03:56:59;3.10;;;1.15;;
67049;SDS011;53955;52.442;13.284;2022-07-06T03:59:25;2.22;;;1.20;;
67049;SDS011;53955;52.442;13.284;2022-07-06T04:01:52;2.65;;;1.08;;
67049;SDS011;53955;52.442;13.284;2022-07-06T04:04:18;2.83;;;1.23;;
67049;SDS011;53955;52.442;13.284;2022-07-06T04:06:45;2.08;;;1.20;;
67049;SDS011;53955;52.442;13.284;2022-07-06T04:09:12;2.67;;;1.27;;
67049;SDS011;53955;52.442;13.284;2022-07-06T04:11:39;2.00;;;1.45;;
67049;SDS011;53955;52.442;13.284;2022-07-06T04:14:06;2.80;;;1.20;;
67049;SDS011;53955;52.442;13.284;2022-07-06T04:16:33;3.85;;;1.50;;
67049;SDS011;53955;52.442;13.284;2022-07-06T04:18:59;3.38;;;1.70;;
67049;SDS011;53955;52.442;13.284;2022-07-06T04:21:26;2.35;;;1.38;;
67049;SDS011;53955;52.442;13.284;2022-07-06T04:23:52;5.60;;;1.20;;
67049;SDS011;53955;52.442;13.284;2022-07-06T04:26:19;3.97;;;1.13;;
67049;SDS011;53955;52.442;13.284;2022-07-06T04:28:47;3.80;;;1.17;;
67049;SDS011;53955;52.442;13.284;2022-07-06T04:31:13;1.75;;;0.98;;
67049;SDS011;53955;52.442;13.284;2022-07-06T04:33:40;2.35;;;1.00;;
67049;SDS011;53955;52.442;13.284;2022-07-06T04:36:07;4.63;;;1.42;;
67049;SDS011;53955;52.442;13.284;2022-07-06T04:38:34;2.38;;;1.20;;
67049;SDS011;53955;52.442;13.284;2022-07-06T04:41:01;3.38;;;1.20;;
67049;SDS011;53955;52.442;13.284;2022-07-06T04:43:27;6.07;;;1.30;;
67049;SDS011;53955;52.442;13.284;2022-07-06T04:45:56;2.60;;;1.13;;
67049;SDS011;53955;52.442;13.284;2022-07-06T04:48:22;2.22;;;1.10;;
67049;SDS011;53955;52.442;13.284;2022-07-06T04:50:49;2.40;;;1.00;;
67049;SDS011;53955;52.442;13.284;2022-07-06T04:53:16;4.32;;;1.00;;
67049;SDS011;53955;52.442;13.284;2022-07-06T04:55:42;1.77;;;1.00;;
67049;SDS011;53955;52.442;13.284;2022-07-06T04:58:09;3.38;;;1.10;;
67049;SDS011;53955;52.442;13.284;2022-07-06T05:00:35;4.00;;;1.20;;
67049;SDS011;53955;52.442;13.284;2022-07-06T05:03:03;2.13;;;1.10;;
67049;SDS011;53955;52.442;13.284;2022-07-06T05:05:29;3.38;;;1.30;;
67049;SDS011;53955;52.442;13.284;2022-07-06T05:07:56;2.95;;;0.82;;
67049;SDS011;53955;52.442;13.284;2022-07-06T05:10:23;4.55;;;1.17;;
67049;SDS011;53955;52.442;13.284;2022-07-06T05:12:49;2.78;;;0.88;;
67049;SDS011;53955;52.442;13.284;2022-07-06T05:15:16;3.22;;;0.93;;
67049;SDS011;53955;52.442;13.284;2022-07-06T05:17:42;2.65;;;0.80;;
67049;SDS011;53955;52.442;13.284;2022-07-06T05:20:10;5.70;;;0.98;;
67049;SDS011;53955;52.442;13.284;2022-07-06T05:22:36;1.98;;;0.60;;
67049;SDS011;53955;52.442;13.284;2022-07-06T05:25:03;4.43;;;0.70;;
67049;SDS011;53955;52.442;13.284;2022-07-06T05:27:30;1.33;;;0.50;;
67049;SDS011;53955;52.442;13.284;2022-07-06T05:29:57;1.92;;;0.57;;
67049;SDS011;53955;52.442;13.284;2022-07-06T05:32:23;0.57;;;0.30;;
67049;SDS011;53955;52.442;13.284;2022-07-06T05:34:50;1.00;;;0.55;;
67049;SDS011;53955;52.442;13.284;2022-07-06T05:37:18;2.53;;;0.80;;
67049;SDS011;53955;52.442;13.284;2022-07-06T05:39:45;1.25;;;0.32;;
67049;SDS011;53955;52.442;13.284;2022-07-06T05:42:12;2.65;;;0.65;;
67049;SDS011;53955;52.442;13.284;2022-07-06T05:44:38;2.50;;;0.80;;
67049;SDS011;53955;52.442;13.284;2022-07-06T05:47:05;1.58;;;0.50;;
67049;SDS011;53955;52.442;13.284;2022-07-06T05:49:49;3.40;;;0.60;;
67049;SDS011;53955;52.442;13.284;2022-07-06T05:52:35;2.58;;;0.60;;
67049;SDS011;53955;52.442;13.284;2022-07-06T05:55:01;4.72;;;0.47;;
67049;SDS011;53955;52.442;13.284;2022-07-06T05:57:28;1.48;;;0.50;;
67049;SDS011;53955;52.442;13.284;2022-07-06T05:59:55;2.03;;;0.50;;
67049;SDS011;53955;52.442;13.284;2022-07-06T06:02:21;2.03;;;0.40;;
67049;SDS011;53955;52.442;13.284;2022-07-06T06:04:48;2.17;;;0.50;;
67049;SDS011;53955;52.442;13.284;2022-07-06T06:07:14;1.85;;;0.50;;
67049;SDS011;53955;52.442;13.284;2022-07-06T06:09:43;2.63;;;0.70;;
67049;SDS011;53955;52.442;13.284;2022-07-06T06:12:10;2.70;;;0.50;;
67049;SDS011;53955;52.442;13.284;2022-07-06T06:14:36;1.92;;;0.43;;
67049;SDS011;53955;52.442;13.284;2022-07-06T06:17:03;1.58;;;0.60;;
67049;SDS011;53955;52.442;13.284;2022-07-06T06:19:33;2.13;;;0.68;;
67049;SDS011;53955;52.442;13.284;2022-07-06T06:22:01;2.88;;;0.50;;
67049;SDS011;53955;52.442;13.284;2022-07-06T06:24:28;0.75;;;0.40;;
67049;SDS011;53955;52.442;13.284;2022-07-06T06:26:56;1.88;;;0.43;;
67049;SDS011;53955;52.442;13.284;2022-07-06T06:29:24;1.60;;;0.50;;
67049;SDS011;53955;52.442;13.284;2022-07-06T06:31:50;4.13;;;0.60;;
67049;SDS011;53955;52.442;13.284;2022-07-06T06:34:17;2.55;;;0.60;;
67049;SDS011;53955;52.442;13.284;2022-07-06T06:36:43;3.03;;;0.88;;
67049;SDS011;53955;52.442;13.284;2022-07-06T06:39:10;2.95;;;0.80;;
67049;SDS011;53955;52.442;13.284;2022-07-06T06:41:36;3.35;;;0.65;;
67049;SDS011;53955;52.442;13.284;2022-07-06T06:44:04;2.15;;;0.70;;
67049;SDS011;53955;52.442;13.284;2022-07-06T06:46:31;2.53;;;0.80;;
67049;SDS011;53955;52.442;13.284;2022-07-06T06:48:57;3.05;;;0.70;;
67049;SDS011;53955;52.442;13.284;2022-07-06T06:51:24;3.63;;;0.77;;
67049;SDS011;53955;52.442;13.284;2022-07-06T06:53:51;2.03;;;0.60;;
67049;SDS011;53955;52.442;13.284;2022-07-06T06:56:17;2.03;;;0.60;;
67049;SDS011;53955;52.442;13.284;2022-07-06T06:58:44;2.38;;;0.68;;
67049;SDS011;53955;52.442;13.284;2022-07-06T07:01:11;3.63;;;0.65;;
67049;SDS011;53955;52.442;13.284;2022-07-06T07:03:38;2.22;;;0.75;;
67049;SDS011;53955;52.442;13.284;2022-07-06T07:06:05;2.50;;;0.82;;
67049;SDS011;53955;52.442;13.284;2022-07-06T07:08:32;3.60;;;0.80;;
67049;SDS011;53955;52.442;13.284;2022-07-06T07:10:58;2.88;;;1.00;;
67049;SDS011;53955;52.442;13.284;2022-07-06T07:13:25;1.67;;;0.60;;
67049;SDS011;53955;52.442;13.284;2022-07-06T07:15:52;2.88;;;0.95;;
67049;SDS011;53955;52.442;13.284;2022-07-06T07:18:20;2.58;;;0.82;;
67049;SDS011;53955;52.442;13.284;2022-07-06T07:20:46;3.03;;;0.60;;
67049;SDS011;53955;52.442;13.284;2022-07-06T07:23:13;3.42;;;0.57;;
67049;SDS011;53955;52.442;13.284;2022-07-06T07:25:39;3.90;;;0.80;;
67049;SDS011;53955;52.442;13.284;2022-07-06T07:28:06;3.05;;;0.73;;
67049;SDS011;53955;52.442;13.284;2022-07-06T07:30:32;2.15;;;0.70;;
67049;SDS011;53955;52.442;13.284;2022-07-06T07:32:59;3.65;;;0.88;;
67049;SDS011;53955;52.442;13.284;2022-07-06T07:35:27;3.00;;;0.88;;
67049;SDS011;53955;52.442;13.284;2022-07-06T07:37:54;5.05;;;1.35;;
67049;SDS011;53955;52.442;13.284;2022-07-06T07:40:20;5.55;;;0.70;;
67049;SDS011;53955;52.442;13.284;2022-07-06T07:42:47;2.72;;;0.70;;
67049;SDS011;53955;52.442;13.284;2022-07-06T07:45:14;3.88;;;0.73;;
67049;SDS011;53955;52.442;13.284;2022-07-06T07:47:40;1.98;;;0.57;;
67049;SDS011;53955;52.442;13.284;2022-07-06T07:50:08;1.10;;;0.57;;
67049;SDS011;53955;52.442;13.284;2022-07-06T07:52:37;4.03;;;0.93;;
67049;SDS011;53955;52.442;13.284;2022-07-06T07:55:04;0.90;;;0.45;;
67049;SDS011;53955;52.442;13.284;2022-07-06T07:57:31;1.50;;;0.60;;
67049;SDS011;53955;52.442;13.284;2022-07-06T07:59:58;1.98;;;0.90;;
67049;SDS011;53955;52.442;13.284;2022-07-06T08:02:24;1.15;;;0.60;;
67049;SDS011;53955;52.442;13.284;2022-07-06T08:04:51;1.58;;;0.65;;
67049;SDS011;53955;52.442;13.284;2022-07-06T08:07:17;5.88;;;0.70;;
67049;SDS011;53955;52.442;13.284;2022-07-06T08:09:46;1.83;;;1.10;;
67049;SDS011;53955;52.442;13.284;2022-07-06T08:12:12;0.85;;;0.57;;
67049;SDS011;53955;52.442;13.284;2022-07-06T08:14:39;2.35;;;0.55;;
67049;SDS011;53955;52.442;13.284;2022-07-06T08:17:05;2.58;;;0.60;;
67049;SDS011;53955;52.442;13.284;2022-07-06T08:19:32;1.52;;;0.63;;
67049;SDS011;53955;52.442;13.284;2022-07-06T08:21:58;2.22;;;0.95;;
67049;SDS011;53955;52.442;13.284;2022-07-06T08:24:25;3.65;;;0.80;;
67049;SDS011;53955;52.442;13.284;2022-07-06T08:26:53;2.40;;;0.73;;
67049;SDS011;53955;52.442;13.284;2022-07-06T08:29:22;2.20;;;0.60;;
67049;SDS011;53955;52.442;13.284;2022-07-06T08:31:49;3.10;;;0.70;;
67049;SDS011;53955;52.442;13.284;2022-07-06T08:34:15;1.70;;;0.95;;
67049;SDS011;53955;52.442;13.284;2022-07-06T08:36:42;2.72;;;0.80;;
67049;SDS011;53955;52.442;13.284;2022-07-06T08:39:08;2.90;;;0.80;;
67049;SDS011;53955;52.442;13.284;2022-07-06T08:41:35;1.95;;;0.82;;
67049;SDS011;53955;52.442;13.284;2022-07-06T08:44:05;2.80;;;0.60;;
67049;SDS011;53955;52.442;13.284;2022-07-06T08:46:32;3.78;;;0.80;;
67049;SDS011;53955;52.442;13.284;2022-07-06T08:49:00;1.33;;;0.70;;
67049;SDS011;53955;52.442;13.284;2022-07-06T08:51:27;2.53;;;1.02;;
67049;SDS011;53955;52.442;13.284;2022-07-06T08:53:54;1.67;;;0.80;;
67049;SDS011;53955;52.442;13.284;2022-07-06T08:56:22;1.30;;;0.65;;
67049;SDS011;53955;52.442;13.284;2022-07-06T08:58:48;1.38;;;0.50;;
67049;SDS011;53955;52.442;13.284;2022-07-06T09:01:17;3.03;;;1.10;;
67049;SDS011;53955;52.442;13.284;2022-07-06T09:03:44;1.45;;;0.50;;
67049;SDS011;53955;52.442;13.284;2022-07-06T09:06:14;3.08;;;1.00;;
67049;SDS011;53955;52.442;13.284;2022-07-06T09:08:43;4.05;;;0.75;;
67049;SDS011;53955;52.442;13.284;2022-07-06T09:11:11;1.80;;;1.00;;
67049;SDS011;53955;52.442;13.284;2022-07-06T09:13:37;4.47;;;0.80;;
67049;SDS011;53955;52.442;13.284;2022-07-06T09:16:08;1.83;;;0.80;;
67049;SDS011;53955;52.442;13.284;2022-07-06T09:18:38;3.15;;;0.80;;
67049;SDS011;53955;52.442;13.284;2022-07-06T09:21:06;1.77;;;0.80;;
67049;SDS011;53955;52.442;13.284;2022-07-06T09:23:32;2.30;;;0.70;;
67049;SDS011;53955;52.442;13.284;2022-07-06T09:26:01;0.95;;;0.60;;
67049;SDS011;53955;52.442;13.284;2022-07-06T09:28:39;1.63;;;0.77;;
67049;SDS011;53955;52.442;13.284;2022-07-06T09:31:06;1.90;;;0.60;;
67049;SDS011;53955;52.442;13.284;2022-07-06T09:33:34;2.20;;;0.57;;
67049;SDS011;53955;52.442;13.284;2022-07-06T09:36:02;0.95;;;0.70;;
67049;SDS011;53955;52.442;13.284;2022-07-06T09:38:30;1.17;;;0.55;;
67049;SDS011;53955;52.442;13.284;2022-07-06T09:40:57;2.58;;;0.75;;
67049;SDS011;53955;52.442;13.284;2022-07-06T09:43:26;2.08;;;0.50;;
67049;SDS011;53955;52.442;13.284;2022-07-06T09:45:55;0.60;;;0.50;;
67049;SDS011;53955;52.442;13.284;2022-07-06T09:48:23;2.35;;;0.60;;
67049;SDS011;53955;52.442;13.284;2022-07-06T09:50:51;0.82;;;0.47;;
67049;SDS011;53955;52.442;13.284;2022-07-06T09:53:21;1.13;;;0.82;;
67049;SDS011;53955;52.442;13.284;2022-07-06T09:55:49;2.05;;;0.50;;
67049;SDS011;53955;52.442;13.284;2022-07-06T09:58:17;1.17;;;0.65;;
67049;SDS011;53955;52.442;13.284;2022-07-06T10:00:44;2.50;;;0.70;;
67049;SDS011;53955;52.442;13.284;2022-07-06T10:03:12;1.25;;;0.70;;
67049;SDS011;53955;52.442;13.284;2022-07-06T10:05:42;1.48;;;0.60;;
67049;SDS011;53955;52.442;13.284;2022-07-06T10:08:11;2.60;;;0.77;;
67049;SDS011;53955;52.442;13.284;2022-07-06T10:10:40;2.90;;;0.88;;
67049;SDS011;53955;52.442;13.284;2022-07-06T10:13:08;1.35;;;0.68;;
67049;SDS011;53955;52.442;13.284;2022-07-06T10:15:36;1.27;;;0.70;;
67049;SDS011;53955;52.442;13.284;2022-07-06T10:18:05;1.13;;;0.50;;
67049;SDS011;53955;52.442;13.284;2022-07-06T10:20:33;2.15;;;0.50;;
67049;SDS011;53955;52.442;13.284;2022-07-06T10:23:03;0.80;;;0.52;;
67049;SDS011;53955;52.442;13.284;2022-07-06T10:25:31;3.80;;;0.80;;
67049;SDS011;53955;52.442;13.284;2022-07-06T10:28:00;2.58;;;0.70;;
67049;SDS011;53955;52.442;13.284;2022-07-06T10:30:27;2.40;;;0.65;;
67049;SDS011;53955;52.442;13.284;2022-07-06T10:32:56;1.48;;;0.68;;
67049;SDS011;53955;52.442;13.284;2022-07-06T10:35:25;1.52;;;0.68;;
67049;SDS011;53955;52.442;13.284;2022-07-06T10:38:02;1.25;;;0.75;;
67049;SDS011;53955;52.442;13.284;2022-07-06T10:40:33;1.10;;;0.68;;
67049;SDS011;53955;52.442;13.284;2022-07-06T10:43:19;2.05;;;0.60;;
67049;SDS011;53955;52.442;13.284;2022-07-06T10:45:50;1.33;;;0.60;;
67049;SDS011;53955;52.442;13.284;2022-07-06T10:48:18;2.15;;;0.40;;
67049;SDS011;53955;52.442;13.284;2022-07-06T10:50:46;2.47;;;0.70;;
67049;SDS011;53955;52.442;13.284;2022-07-06T10:53:15;1.15;;;0.60;;
67049;SDS011;53955;52.442;13.284;2022-07-06T10:55:43;0.80;;;0.50;;
67049;SDS011;53955;52.442;13.284;2022-07-06T10:58:11;1.17;;;0.55;;
67049;SDS011;53955;52.442;13.284;2022-07-06T11:00:51;1.35;;;0.50;;
67049;SDS011;53955;52.442;13.284;2022-07-06T11:03:31;1.30;;;0.50;;
67049;SDS011;53955;52.442;13.284;2022-07-06T11:06:00;1.95;;;0.80;;
67049;SDS011;53955;52.442;13.284;2022-07-06T11:08:46;2.45;;;0.70;;
67049;SDS011;53955;52.442;13.284;2022-07-06T11:11:17;0.93;;;0.52;;
67049;SDS011;53955;52.442;13.284;2022-07-06T11:13:49;2.70;;;0.75;;
67049;SDS011;53955;52.442;13.284;2022-07-06T11:16:19;1.98;;;0.60;;
67049;SDS011;53955;52.442;13.284;2022-07-06T11:18:48;2.00;;;0.82;;
67049;SDS011;53955;52.442;13.284;2022-07-06T11:21:19;2.25;;;0.85;;
67049;SDS011;53955;52.442;13.284;2022-07-06T11:23:48;1.23;;;0.80;;
67049;SDS011;53955;52.442;13.284;2022-07-06T11:26:16;2.40;;;0.80;;
67049;SDS011;53955;52.442;13.284;2022-07-06T11:28:45;0.85;;;0.70;;
67049;SDS011;53955;52.442;13.284;2022-07-06T11:31:13;1.60;;;0.98;;
67049;SDS011;53955;52.442;13.284;2022-07-06T11:33:44;1.98;;;0.65;;
67049;SDS011;53955;52.442;13.284;2022-07-06T11:36:12;2.92;;;0.60;;
67049;SDS011;53955;52.442;13.284;2022-07-06T11:38:39;1.33;;;0.80;;
67049;SDS011;53955;52.442;13.284;2022-07-06T11:41:06;1.05;;;0.60;;
67049;SDS011;53955;52.442;13.284;2022-07-06T11:43:33;4.70;;;1.23;;
67049;SDS011;53955;52.442;13.284;2022-07-06T11:45:59;4.00;;;0.82;;
67049;SDS011;53955;52.442;13.284;2022-07-06T11:48:26;1.95;;;0.70;;
67049;SDS011;53955;52.442;13.284;2022-07-06T11:50:59;0.50;;;0.40;;
67049;SDS011;53955;52.442;13.284;2022-07-06T11:53:26;3.42;;;0.60;;
67049;SDS011;53955;52.442;13.284;2022-07-06T11:55:53;0.73;;;0.32;;
67049;SDS011;53955;52.442;13.284;2022-07-06T11:58:20;2.92;;;0.50;;
67049;SDS011;53955;52.442;13.284;2022-07-06T12:01:04;0.73;;;0.47;;
67049;SDS011;53955;52.442;13.284;2022-07-06T12:03:31;0.85;;;0.50;;
67049;SDS011;53955;52.442;13.284;2022-07-06T12:06:01;2.80;;;0.70;;
67049;SDS011;53955;52.442;13.284;2022-07-06T12:08:27;1.40;;;0.75;;
67049;SDS011;53955;52.442;13.284;2022-07-06T12:10:54;1.10;;;0.43;;
67049;SDS011;53955;52.442;13.284;2022-07-06T12:13:21;2.20;;;0.60;;
67049;SDS011;53955;52.442;13.284;2022-07-06T12:15:48;2.50;;;0.57;;
67049;SDS011;53955;52.442;13.284;2022-07-06T12:18:15;2.25;;;0.40;;
67049;SDS011;53955;52.442;13.284;2022-07-06T12:20:41;3.50;;;0.50;;
67049;SDS011;53955;52.442;13.284;2022-07-06T12:23:09;2.00;;;0.70;;
67049;SDS011;53955;52.442;13.284;2022-07-06T12:25:36;4.88;;;1.35;;
67049;SDS011;53955;52.442;13.284;2022-07-06T12:28:03;4.47;;;2.40;;
67049;SDS011;53955;52.442;13.284;2022-07-06T12:30:30;2.45;;;1.02;;
67049;SDS011;53955;52.442;13.284;2022-07-06T12:33:15;1.17;;;0.63;;
67049;SDS011;53955;52.442;13.284;2022-07-06T12:35:43;0.80;;;0.50;;
67049;SDS011;53955;52.442;13.284;2022-07-06T12:38:12;0.88;;;0.40;;
67049;SDS011;53955;52.442;13.284;2022-07-06T12:40:38;2.38;;;0.80;;
67049;SDS011;53955;52.442;13.284;2022-07-06T12:43:05;2.17;;;0.60;;
67049;SDS011;53955;52.442;13.284;2022-07-06T12:45:31;1.15;;;0.63;;
67049;SDS011;53955;52.442;13.284;2022-07-06T12:47:58;1.88;;;0.60;;
67049;SDS011;53955;52.442;13.284;2022-07-06T12:50:32;4.10;;;1.00;;
67049;SDS011;53955;52.442;13.284;2022-07-06T12:53:00;4.72;;;1.17;;
67049;SDS011;53955;52.442;13.284;2022-07-06T12:55:29;2.42;;;0.90;;
67049;SDS011;53955;52.442;13.284;2022-07-06T12:57:57;3.30;;;1.00;;
67049;SDS011;53955;52.442;13.284;2022-07-06T13:00:24;2.72;;;1.40;;
67049;SDS011;53955;52.442;13.284;2022-07-06T13:02:52;3.00;;;1.50;;
67049;SDS011;53955;52.442;13.284;2022-07-06T13:05:23;2.60;;;1.73;;
67049;SDS011;53955;52.442;13.284;2022-07-06T13:07:52;4.80;;;2.05;;
67049;SDS011;53955;52.442;13.284;2022-07-06T13:10:20;5.50;;;3.38;;
67049;SDS011;53955;52.442;13.284;2022-07-06T13:12:48;7.33;;;3.83;;
67049;SDS011;53955;52.442;13.284;2022-07-06T13:15:15;8.48;;;5.53;;
67049;SDS011;53955;52.442;13.284;2022-07-06T13:17:42;9.60;;;6.03;;
67049;SDS011;53955;52.442;13.284;2022-07-06T13:20:10;9.65;;;6.47;;
67049;SDS011;53955;52.442;13.284;2022-07-06T13:22:38;9.45;;;6.07;;
67049;SDS011;53955;52.442;13.284;2022-07-06T13:25:05;10.45;;;5.65;;
67049;SDS011;53955;52.442;13.284;2022-07-06T13:27:32;9.18;;;6.07;;
67049;SDS011;53955;52.442;13.284;2022-07-06T13:30:00;11.15;;;6.75;;
67049;SDS011;53955;52.442;13.284;2022-07-06T13:32:27;8.88;;;6.75;;
67049;SDS011;53955;52.442;13.284;2022-07-06T13:34:53;11.60;;;5.85;;
67049;SDS011;53955;52.442;13.284;2022-07-06T13:37:20;11.55;;;5.55;;
67049;SDS011;53955;52.442;13.284;2022-07-06T13:39:46;8.75;;;5.22;;
67049;SDS011;53955;52.442;13.284;2022-07-06T13:42:13;7.93;;;5.60;;
67049;SDS011;53955;52.442;13.284;2022-07-06T13:44:40;9.35;;;5.50;;
67049;SDS011;53955;52.442;13.284;2022-07-06T13:47:08;7.40;;;5.15;;
67049;SDS011;53955;52.442;13.284;2022-07-06T13:49:35;9.10;;;5.22;;
67049;SDS011;53955;52.442;13.284;2022-07-06T13:52:02;13.75;;;6.30;;
67049;SDS011;53955;52.442;13.284;2022-07-06T13:54:29;8.55;;;5.78;;
67049;SDS011;53955;52.442;13.284;2022-07-06T13:56:56;7.95;;;4.97;;
67049;SDS011;53955;52.442;13.284;2022-07-06T13:59:22;8.10;;;4.97;;
67049;SDS011;53955;52.442;13.284;2022-07-06T14:01:49;7.63;;;4.85;;
67049;SDS011;53955;52.442;13.284;2022-07-06T14:04:17;6.28;;;3.97;;
67049;SDS011;53955;52.442;13.284;2022-07-06T14:06:43;4.68;;;2.60;;
67049;SDS011;53955;52.442;13.284;2022-07-06T14:09:10;3.38;;;1.70;;
67049;SDS011;53955;52.442;13.284;2022-07-06T14:11:36;3.58;;;1.63;;
67049;SDS011;53955;52.442;13.284;2022-07-06T14:14:03;3.10;;;1.80;;
67049;SDS011;53955;52.442;13.284;2022-07-06T14:16:31;4.72;;;1.42;;
67049;SDS011;53955;52.442;13.284;2022-07-06T14:19:00;6.68;;;1.85;;
67049;SDS011;53955;52.442;13.284;2022-07-06T14:21:28;4.10;;;1.40;;
67049;SDS011;53955;52.442;13.284;2022-07-06T14:23:54;2.90;;;1.13;;
67049;SDS011;53955;52.442;13.284;2022-07-06T14:26:21;1.25;;;0.82;;
67049;SDS011;53955;52.442;13.284;2022-07-06T14:28:47;2.50;;;0.90;;
67049;SDS011;53955;52.442;13.284;2022-07-06T14:31:14;3.10;;;0.80;;
67049;SDS011;53955;52.442;13.284;2022-07-06T14:33:41;1.55;;;0.95;;
67049;SDS011;53955;52.442;13.284;2022-07-06T14:36:07;2.53;;;1.00;;
67049;SDS011;53955;52.442;13.284;2022-07-06T14:38:35;1.17;;;0.60;;